sensor_id;sensor_type;location;lat;lon;timestamp;pressure;altitude;pressure_sealevel;temperature;humidity
26699;BME280;14313;50.892;13.756;2022-10-17T03:01:34;98407.50;;;14.95;78.83
26699;BME280;14313;50.892;13.756;2022-10-17T03:04:05;98417.44;;;14.93;79.16
26699;BME280;14313;50.892;13.756;2022-10-17T03:06:30;98412.13;;;14.93;78.69
26699;BME280;14313;50.892;13.756;2022-10-17T03:08:56;98417.53;;;14.59;80.52
26699;BME280;14313;50.892;13.756;2022-10-17T03:11:21;98413.31;;;14.82;79.93
26699;BME280;14313;50.892;13.756;2022-10-17T03:13:46;98413.16;;;14.92;79.95
26699;BME280;14313;50.892;13.756;2022-10-17T03:16:12;98405.34;;;14.82;79.36
26699;BME280;14313;50.892;13.756;2022-10-17T03:18:37;98412.13;;;14.77;80.11
26699;BME280;14313;50.892;13.756;2022-10-17T03:21:03;98414.44;;;14.80;80.00
26699;BME280;14313;50.892;13.756;2022-10-17T03:23:28;98412.28;;;14.83;80.08
26699;BME280;14313;50.892;13.756;2022-10-17T03:25:54;98408.69;;;14.92;79.70
26699;BME280;14313;50.892;13.756;2022-10-17T03:28:19;98414.63;;;14.94;78.83
26699;BME280;14313;50.892;13.756;2022-10-17T03:30:44;98413.13;;;14.84;78.98
26699;BME280;14313;50.892;13.756;2022-10-17T03:33:10;98421.44;;;14.81;79.12
26699;BME280;14313;50.892;13.756;2022-10-17T03:35:37;98417.91;;;14.72;78.73
26699;BME280;14313;50.892;13.756;2022-10-17T03:38:03;98414.59;;;14.70;79.20
26699;BME280;14313;50.892;13.756;2022-10-17T03:40:29;98427.03;;;14.78;79.37
26699;BME280;14313;50.892;13.756;2022-10-17T03:42:54;98422.72;;;14.69;79.03
26699;BME280;14313;50.892;13.756;2022-10-17T03:45:19;98421.53;;;14.63;79.44
26699;BME280;14313;50.892;13.756;2022-10-17T03:47:46;98420.81;;;14.53;79.86
26699;BME280;14313;50.892;13.756;2022-10-17T03:50:11;98434.44;;;14.58;80.47
26699;BME280;14313;50.892;13.756;2022-10-17T03:52:38;98431.44;;;14.53;79.31
26699;BME280;14313;50.892;13.756;2022-10-17T03:55:03;98440.09;;;14.63;79.68
26699;BME280;14313;50.892;13.756;2022-10-17T03:57:29;98435.63;;;14.56;80.15
26699;BME280;14313;50.892;13.756;2022-10-17T03:59:54;98433.97;;;14.63;79.72
26699;BME280;14313;50.892;13.756;2022-10-17T04:02:20;98431.94;;;14.48;79.58
26699;BME280;14313;50.892;13.756;2022-10-17T04:04:45;98434.06;;;14.45;79.94
26699;BME280;14313;50.892;13.756;2022-10-17T04:07:10;98432.59;;;14.50;79.44
26699;BME280;14313;50.892;13.756;2022-10-17T04:09:40;98443.03;;;14.52;79.09
26699;BME280;14313;50.892;13.756;2022-10-17T04:12:10;98435.41;;;14.49;78.78
26699;BME280;14313;50.892;13.756;2022-10-17T04:14:36;98439.88;;;14.40;80.08
26699;BME280;14313;50.892;13.756;2022-10-17T04:17:02;98435.31;;;14.33;79.42
26699;BME280;14313;50.892;13.756;2022-10-17T04:19:28;98439.78;;;14.32;79.53
26699;BME280;14313;50.892;13.756;2022-10-17T04:21:54;98443.59;;;14.30;79.67
26699;BME280;14313;50.892;13.756;2022-10-17T04:24:20;98446.91;;;14.32;79.93
26699;BME280;14313;50.892;13.756;2022-10-17T04:26:57;98452.06;;;14.33;79.79
26699;BME280;14313;50.892;13.756;2022-10-17T04:29:27;98446.75;;;14.33;79.80
26699;BME280;14313;50.892;13.756;2022-10-17T04:32:00;98458.69;;;14.29;79.57
26699;BME280;14313;50.892;13.756;2022-10-17T04:34:32;98461.00;;;14.32;79.74
26699;BME280;14313;50.892;13.756;2022-10-17T04:36:57;98444.22;;;14.24;79.78
26699;BME280;14313;50.892;13.756;2022-10-17T04:39:23;98441.72;;;14.22;79.94
26699;BME280;14313;50.892;13.756;2022-10-17T04:41:49;98450.66;;;14.21;79.76
26699;BME280;14313;50.892;13.756;2022-10-17T04:44:14;98448.00;;;14.21;80.34
26699;BME280;14313;50.892;13.756;2022-10-17T04:46:46;98457.50;;;14.24;80.14
26699;BME280;14313;50.892;13.756;2022-10-17T04:49:11;98456.31;;;14.26;79.96
26699;BME280;14313;50.892;13.756;2022-10-17T04:51:39;98456.31;;;14.26;79.63
26699;BME280;14313;50.892;13.756;2022-10-17T04:54:12;98460.34;;;14.30;79.43
26699;BME280;14313;50.892;13.756;2022-10-17T04:56:41;98465.31;;;14.25;79.77
26699;BME280;14313;50.892;13.756;2022-10-17T04:59:06;98462.44;;;14.19;79.52
26699;BME280;14313;50.892;13.756;2022-10-17T05:01:32;98459.63;;;14.20;79.44
26699;BME280;14313;50.892;13.756;2022-10-17T05:03:58;98471.88;;;14.21;79.16
26699;BME280;14313;50.892;13.756;2022-10-17T05:06:24;98469.66;;;14.08;79.71
26699;BME280;14313;50.892;13.756;2022-10-17T05:09:18;98478.00;;;14.14;79.85
26699;BME280;14313;50.892;13.756;2022-10-17T05:11:44;98466.66;;;14.03;80.33
26699;BME280;14313;50.892;13.756;2022-10-17T05:14:11;98465.66;;;14.04;80.04
26699;BME280;14313;50.892;13.756;2022-10-17T05:16:36;98465.84;;;14.11;80.45
26699;BME280;14313;50.892;13.756;2022-10-17T05:19:02;98470.34;;;14.11;80.46
26699;BME280;14313;50.892;13.756;2022-10-17T05:21:33;98481.50;;;14.22;79.69
26699;BME280;14313;50.892;13.756;2022-10-17T05:24:04;98475.72;;;14.27;79.90
26699;BME280;14313;50.892;13.756;2022-10-17T05:26:31;98465.47;;;14.32;79.17
26699;BME280;14313;50.892;13.756;2022-10-17T05:28:59;98488.00;;;14.20;79.66
26699;BME280;14313;50.892;13.756;2022-10-17T05:31:30;98479.91;;;14.29;79.53
26699;BME280;14313;50.892;13.756;2022-10-17T05:33:59;98472.44;;;14.25;80.45
26699;BME280;14313;50.892;13.756;2022-10-17T05:36:26;98481.25;;;14.33;80.15
26699;BME280;14313;50.892;13.756;2022-10-17T05:38:52;98484.31;;;14.38;79.73
26699;BME280;14313;50.892;13.756;2022-10-17T05:41:18;98497.94;;;14.43;79.75
26699;BME280;14313;50.892;13.756;2022-10-17T05:43:44;98489.97;;;14.43;79.47
26699;BME280;14313;50.892;13.756;2022-10-17T05:46:11;98495.22;;;14.35;80.08
26699;BME280;14313;50.892;13.756;2022-10-17T05:48:37;98504.41;;;14.41;79.69
26699;BME280;14313;50.892;13.756;2022-10-17T05:51:05;98493.59;;;14.42;79.96
26699;BME280;14313;50.892;13.756;2022-10-17T05:53:39;98505.91;;;14.43;79.82
26699;BME280;14313;50.892;13.756;2022-10-17T05:56:10;98513.56;;;14.46;79.48
26699;BME280;14313;50.892;13.756;2022-10-17T05:58:40;98511.44;;;14.58;79.13
26699;BME280;14313;50.892;13.756;2022-10-17T06:01:08;98513.59;;;14.55;78.69
26699;BME280;14313;50.892;13.756;2022-10-17T06:03:34;98519.72;;;14.55;78.69
26699;BME280;14313;50.892;13.756;2022-10-17T06:06:09;98526.88;;;14.55;78.90
26699;BME280;14313;50.892;13.756;2022-10-17T06:08:36;98527.63;;;14.47;79.44
26699;BME280;14313;50.892;13.756;2022-10-17T06:11:03;98529.66;;;14.53;79.57
26699;BME280;14313;50.892;13.756;2022-10-17T06:13:29;98532.13;;;14.46;80.07
26699;BME280;14313;50.892;13.756;2022-10-17T06:15:56;98527.38;;;14.58;79.97
26699;BME280;14313;50.892;13.756;2022-10-17T06:18:22;98535.16;;;14.52;80.27
26699;BME280;14313;50.892;13.756;2022-10-17T06:20:48;98525.06;;;14.63;80.44
26699;BME280;14313;50.892;13.756;2022-10-17T06:23:15;98530.59;;;14.70;80.07
26699;BME280;14313;50.892;13.756;2022-10-17T06:26:07;98527.69;;;14.89;79.89
26699;BME280;14313;50.892;13.756;2022-10-17T06:28:34;98547.16;;;14.98;79.77
26699;BME280;14313;50.892;13.756;2022-10-17T06:31:05;98553.47;;;15.05;79.60
26699;BME280;14313;50.892;13.756;2022-10-17T06:33:30;98544.25;;;15.25;79.43
26699;BME280;14313;50.892;13.756;2022-10-17T06:35:56;98550.09;;;15.28;79.16
26699;BME280;14313;50.892;13.756;2022-10-17T06:38:23;98557.22;;;15.36;79.11
26699;BME280;14313;50.892;13.756;2022-10-17T06:40:50;98553.44;;;15.47;79.46
26699;BME280;14313;50.892;13.756;2022-10-17T06:43:18;98554.34;;;15.63;79.53
26699;BME280;14313;50.892;13.756;2022-10-17T06:45:55;98553.34;;;15.81;79.77
26699;BME280;14313;50.892;13.756;2022-10-17T06:48:35;98555.69;;;16.00;80.57
26699;BME280;14313;50.892;13.756;2022-10-17T06:51:27;98555.84;;;16.23;80.57
26699;BME280;14313;50.892;13.756;2022-10-17T06:53:56;98552.00;;;16.33;79.93
26699;BME280;14313;50.892;13.756;2022-10-17T06:56:41;98568.13;;;16.56;80.44
26699;BME280;14313;50.892;13.756;2022-10-17T06:59:27;98567.63;;;16.69;80.01
26699;BME280;14313;50.892;13.756;2022-10-17T07:02:04;98573.91;;;16.84;79.39
26699;BME280;14313;50.892;13.756;2022-10-17T07:04:30;98567.84;;;16.98;79.53
26699;BME280;14313;50.892;13.756;2022-10-17T07:06:56;98572.94;;;17.16;79.41
26699;BME280;14313;50.892;13.756;2022-10-17T07:09:24;98572.22;;;17.30;79.66
26699;BME280;14313;50.892;13.756;2022-10-17T07:11:51;98573.63;;;17.48;79.73
26699;BME280;14313;50.892;13.756;2022-10-17T07:14:17;98576.72;;;17.68;79.65
26699;BME280;14313;50.892;13.756;2022-10-17T07:16:42;98581.81;;;17.78;79.63
26699;BME280;14313;50.892;13.756;2022-10-17T07:19:14;98581.03;;;17.92;79.87
26699;BME280;14313;50.892;13.756;2022-10-17T07:21:39;98580.03;;;18.16;80.05
26699;BME280;14313;50.892;13.756;2022-10-17T07:24:07;98578.88;;;18.33;79.84
26699;BME280;14313;50.892;13.756;2022-10-17T07:26:33;98569.69;;;18.50;80.25
26699;BME280;14313;50.892;13.756;2022-10-17T07:28:59;98570.13;;;18.77;79.83
26699;BME280;14313;50.892;13.756;2022-10-17T07:31:31;98571.56;;;19.08;79.79
26699;BME280;14313;50.892;13.756;2022-10-17T07:33:58;98579.50;;;19.31;79.68
26699;BME280;14313;50.892;13.756;2022-10-17T07:36:24;98575.75;;;19.62;79.70
26699;BME280;14313;50.892;13.756;2022-10-17T07:38:49;98575.28;;;19.94;79.29
26699;BME280;14313;50.892;13.756;2022-10-17T07:41:16;98584.44;;;20.06;79.11
26699;BME280;14313;50.892;13.756;2022-10-17T07:43:44;98573.59;;;20.57;77.42
26699;BME280;14313;50.892;13.756;2022-10-17T07:46:10;98577.84;;;20.79;76.57
26699;BME280;14313;50.892;13.756;2022-10-17T07:48:37;98588.34;;;21.08;74.20
26699;BME280;14313;50.892;13.756;2022-10-17T07:51:04;98594.66;;;21.22;73.62
26699;BME280;14313;50.892;13.756;2022-10-17T07:53:30;98600.41;;;21.66;72.70
26699;BME280;14313;50.892;13.756;2022-10-17T07:55:55;98593.88;;;21.89;71.84
26699;BME280;14313;50.892;13.756;2022-10-17T07:58:21;98596.72;;;21.81;71.78
26699;BME280;14313;50.892;13.756;2022-10-17T08:00:46;98595.81;;;22.34;70.26
26699;BME280;14313;50.892;13.756;2022-10-17T08:03:13;98600.16;;;22.62;68.96
26699;BME280;14313;50.892;13.756;2022-10-17T08:05:38;98597.88;;;22.59;68.62
26699;BME280;14313;50.892;13.756;2022-10-17T08:08:04;98594.56;;;22.70;68.38
26699;BME280;14313;50.892;13.756;2022-10-17T08:10:29;98592.28;;;22.86;68.64
26699;BME280;14313;50.892;13.756;2022-10-17T08:12:56;98594.06;;;23.19;67.22
26699;BME280;14313;50.892;13.756;2022-10-17T08:15:22;98595.91;;;23.31;67.04
26699;BME280;14313;50.892;13.756;2022-10-17T08:17:48;98594.19;;;23.50;66.77
26699;BME280;14313;50.892;13.756;2022-10-17T08:20:13;98595.38;;;23.67;66.77
26699;BME280;14313;50.892;13.756;2022-10-17T08:22:39;98595.03;;;23.89;66.00
26699;BME280;14313;50.892;13.756;2022-10-17T08:25:05;98598.94;;;24.31;64.71
26699;BME280;14313;50.892;13.756;2022-10-17T08:27:32;98605.22;;;24.74;63.93
26699;BME280;14313;50.892;13.756;2022-10-17T08:29:57;98599.38;;;24.77;60.49
26699;BME280;14313;50.892;13.756;2022-10-17T08:32:25;98593.09;;;25.26;58.78
26699;BME280;14313;50.892;13.756;2022-10-17T08:34:52;98592.41;;;25.31;58.11
26699;BME280;14313;50.892;13.756;2022-10-17T08:37:17;98591.94;;;25.16;57.51
26699;BME280;14313;50.892;13.756;2022-10-17T08:39:43;98589.63;;;25.74;57.06
26699;BME280;14313;50.892;13.756;2022-10-17T08:42:33;98591.34;;;25.68;56.83
26699;BME280;14313;50.892;13.756;2022-10-17T08:45:13;98593.97;;;26.05;55.99
26699;BME280;14313;50.892;13.756;2022-10-17T08:47:47;98582.22;;;26.11;55.88
26699;BME280;14313;50.892;13.756;2022-10-17T08:50:30;98589.00;;;26.32;55.42
26699;BME280;14313;50.892;13.756;2022-10-17T08:53:02;98584.09;;;26.52;55.28
26699;BME280;14313;50.892;13.756;2022-10-17T08:55:39;98581.41;;;26.75;54.39
26699;BME280;14313;50.892;13.756;2022-10-17T08:58:18;98584.25;;;27.03;53.71
26699;BME280;14313;50.892;13.756;2022-10-17T09:00:52;98579.97;;;27.31;52.79
26699;BME280;14313;50.892;13.756;2022-10-17T09:03:28;98584.47;;;27.65;52.91
26699;BME280;14313;50.892;13.756;2022-10-17T09:06:14;98598.63;;;28.24;50.97
26699;BME280;14313;50.892;13.756;2022-10-17T09:08:48;98590.84;;;28.61;49.34
26699;BME280;14313;50.892;13.756;2022-10-17T09:11:38;98587.06;;;28.45;49.60
26699;BME280;14313;50.892;13.756;2022-10-17T09:14:18;98598.56;;;28.69;49.16
26699;BME280;14313;50.892;13.756;2022-10-17T09:19:38;98589.91;;;28.22;49.47
26699;BME280;14313;50.892;13.756;2022-10-17T09:22:10;98593.63;;;27.76;50.69
26699;BME280;14313;50.892;13.756;2022-10-17T09:24:50;98589.53;;;27.73;50.73
26699;BME280;14313;50.892;13.756;2022-10-17T09:27:23;98597.03;;;27.83;49.95
26699;BME280;14313;50.892;13.756;2022-10-17T09:29:54;98591.94;;;27.46;51.54
26699;BME280;14313;50.892;13.756;2022-10-17T09:32:24;98591.59;;;27.43;51.58
26699;BME280;14313;50.892;13.756;2022-10-17T09:34:51;98589.97;;;28.10;50.12
26699;BME280;14313;50.892;13.756;2022-10-17T09:37:17;98588.69;;;28.63;49.01
26699;BME280;14313;50.892;13.756;2022-10-17T09:39:44;98594.38;;;28.78;48.64
26699;BME280;14313;50.892;13.756;2022-10-17T09:42:13;98594.25;;;29.45;47.12
26699;BME280;14313;50.892;13.756;2022-10-17T09:44:50;98583.72;;;30.24;45.45
26699;BME280;14313;50.892;13.756;2022-10-17T09:47:19;98600.00;;;30.77;44.55
26699;BME280;14313;50.892;13.756;2022-10-17T09:49:48;98599.50;;;31.22;43.58
26699;BME280;14313;50.892;13.756;2022-10-17T09:52:16;98599.88;;;31.46;42.24
26699;BME280;14313;50.892;13.756;2022-10-17T09:54:48;98599.91;;;31.51;41.85
26699;BME280;14313;50.892;13.756;2022-10-17T09:57:16;98597.81;;;31.68;41.94
26699;BME280;14313;50.892;13.756;2022-10-17T09:59:47;98594.91;;;31.95;41.57
26699;BME280;14313;50.892;13.756;2022-10-17T10:02:21;98589.69;;;31.84;41.88
26699;BME280;14313;50.892;13.756;2022-10-17T10:07:17;98595.81;;;32.46;41.42
26699;BME280;14313;50.892;13.756;2022-10-17T10:09:46;98584.91;;;32.77;39.90
26699;BME280;14313;50.892;13.756;2022-10-17T10:12:27;98597.44;;;32.52;40.03
26699;BME280;14313;50.892;13.756;2022-10-17T10:14:53;98601.53;;;33.00;39.57
26699;BME280;14313;50.892;13.756;2022-10-17T10:17:39;98600.47;;;32.91;39.38
26699;BME280;14313;50.892;13.756;2022-10-17T10:23:13;98595.41;;;33.54;38.92
26699;BME280;14313;50.892;13.756;2022-10-17T10:25:51;98596.63;;;33.87;38.20
26699;BME280;14313;50.892;13.756;2022-10-17T10:28:18;98598.22;;;33.93;38.00
26699;BME280;14313;50.892;13.756;2022-10-17T10:30:47;98596.47;;;34.12;38.40
26699;BME280;14313;50.892;13.756;2022-10-17T10:33:14;98590.16;;;33.68;38.05
26699;BME280;14313;50.892;13.756;2022-10-17T10:35:39;98593.44;;;34.19;37.87
26699;BME280;14313;50.892;13.756;2022-10-17T10:38:14;98601.06;;;34.22;37.41
26699;BME280;14313;50.892;13.756;2022-10-17T10:40:46;98595.00;;;34.30;37.54
26699;BME280;14313;50.892;13.756;2022-10-17T10:43:26;98596.78;;;34.06;37.02
26699;BME280;14313;50.892;13.756;2022-10-17T10:45:54;98590.75;;;34.48;37.46
26699;BME280;14313;50.892;13.756;2022-10-17T10:48:23;98588.94;;;34.72;36.17
26699;BME280;14313;50.892;13.756;2022-10-17T10:50:58;98596.50;;;35.38;36.00
26699;BME280;14313;50.892;13.756;2022-10-17T10:54:00;98577.84;;;36.39;35.34
26699;BME280;14313;50.892;13.756;2022-10-17T10:56:36;98571.56;;;36.19;34.57
26699;BME280;14313;50.892;13.756;2022-10-17T10:59:09;98563.44;;;36.28;33.83
26699;BME280;14313;50.892;13.756;2022-10-17T11:01:53;98568.91;;;36.79;33.82
26699;BME280;14313;50.892;13.756;2022-10-17T11:04:27;98570.06;;;36.59;34.05
26699;BME280;14313;50.892;13.756;2022-10-17T11:07:07;98576.66;;;37.37;33.23
26699;BME280;14313;50.892;13.756;2022-10-17T11:09:55;98579.38;;;37.50;33.38
26699;BME280;14313;50.892;13.756;2022-10-17T11:12:45;98580.25;;;37.05;34.00
26699;BME280;14313;50.892;13.756;2022-10-17T11:15:22;98577.88;;;37.31;33.41
26699;BME280;14313;50.892;13.756;2022-10-17T11:18:04;98576.16;;;37.62;33.61
26699;BME280;14313;50.892;13.756;2022-10-17T11:23:28;98581.28;;;38.63;31.74
26699;BME280;14313;50.892;13.756;2022-10-17T11:25:57;98590.19;;;38.24;32.83
26699;BME280;14313;50.892;13.756;2022-10-17T11:28:23;98572.25;;;38.26;32.42
26699;BME280;14313;50.892;13.756;2022-10-17T11:31:02;98576.94;;;38.93;30.96
26699;BME280;14313;50.892;13.756;2022-10-17T11:33:46;98577.31;;;39.39;30.71
26699;BME280;14313;50.892;13.756;2022-10-17T11:36:14;98563.75;;;38.01;31.28
26699;BME280;14313;50.892;13.756;2022-10-17T11:38:50;98575.66;;;38.68;29.95
26699;BME280;14313;50.892;13.756;2022-10-17T11:41:29;98569.72;;;39.53;29.57
26699;BME280;14313;50.892;13.756;2022-10-17T11:44:00;98570.59;;;38.92;29.96
26699;BME280;14313;50.892;13.756;2022-10-17T11:46:28;98574.50;;;39.31;29.53
26699;BME280;14313;50.892;13.756;2022-10-17T11:49:05;98567.00;;;39.22;29.41
26699;BME280;14313;50.892;13.756;2022-10-17T11:51:44;98564.66;;;38.54;30.63
26699;BME280;14313;50.892;13.756;2022-10-17T11:54:17;98554.00;;;37.81;31.22
26699;BME280;14313;50.892;13.756;2022-10-17T11:57:15;98553.66;;;37.82;31.18
26699;BME280;14313;50.892;13.756;2022-10-17T11:59:52;98548.13;;;38.32;31.15
26699;BME280;14313;50.892;13.756;2022-10-17T12:02:50;98537.50;;;38.61;30.98
26699;BME280;14313;50.892;13.756;2022-10-17T12:08:15;98538.03;;;39.42;30.59
26699;BME280;14313;50.892;13.756;2022-10-17T12:10:48;98536.50;;;39.19;30.42
26699;BME280;14313;50.892;13.756;2022-10-17T12:15:55;98517.50;;;36.66;33.08
26699;BME280;14313;50.892;13.756;2022-10-17T12:18:23;98517.16;;;36.21;33.96
26699;BME280;14313;50.892;13.756;2022-10-17T12:20:56;98526.53;;;36.34;33.57
26699;BME280;14313;50.892;13.756;2022-10-17T12:23:26;98516.94;;;36.50;33.50
26699;BME280;14313;50.892;13.756;2022-10-17T12:26:01;98515.72;;;37.16;33.11
26699;BME280;14313;50.892;13.756;2022-10-17T12:31:08;98516.31;;;36.99;33.73
26699;BME280;14313;50.892;13.756;2022-10-17T12:33:53;98516.94;;;36.83;33.79
26699;BME280;14313;50.892;13.756;2022-10-17T12:49:41;98507.06;;;35.98;34.46
26699;BME280;14313;50.892;13.756;2022-10-17T12:54:44;98488.31;;;34.78;35.98
26699;BME280;14313;50.892;13.756;2022-10-17T12:57:22;98500.63;;;34.51;37.00
26699;BME280;14313;50.892;13.756;2022-10-17T12:59:48;98499.91;;;34.02;37.78
26699;BME280;14313;50.892;13.756;2022-10-17T13:02:23;98493.34;;;34.65;36.86
26699;BME280;14313;50.892;13.756;2022-10-17T13:04:58;98496.13;;;35.37;35.62
26699;BME280;14313;50.892;13.756;2022-10-17T13:07:27;98498.25;;;36.01;35.08
26699;BME280;14313;50.892;13.756;2022-10-17T13:09:53;98492.91;;;35.72;35.35
26699;BME280;14313;50.892;13.756;2022-10-17T13:12:24;98492.81;;;34.01;37.36
26699;BME280;14313;50.892;13.756;2022-10-17T13:14:52;98488.25;;;34.54;36.49
26699;BME280;14313;50.892;13.756;2022-10-17T13:17:27;98492.94;;;34.82;36.74
26699;BME280;14313;50.892;13.756;2022-10-17T13:19:54;98495.78;;;34.72;35.97
26699;BME280;14313;50.892;13.756;2022-10-17T13:22:22;98495.06;;;35.09;36.58
26699;BME280;14313;50.892;13.756;2022-10-17T13:24:49;98488.22;;;35.54;35.69
26699;BME280;14313;50.892;13.756;2022-10-17T13:27:30;98495.94;;;36.27;34.51
26699;BME280;14313;50.892;13.756;2022-10-17T13:29:59;98501.59;;;35.37;35.28
26699;BME280;14313;50.892;13.756;2022-10-17T13:32:26;98501.13;;;35.06;35.50
26699;BME280;14313;50.892;13.756;2022-10-17T13:35:10;98499.25;;;35.49;34.98
26699;BME280;14313;50.892;13.756;2022-10-17T13:37:38;98501.06;;;36.15;34.51
26699;BME280;14313;50.892;13.756;2022-10-17T13:40:04;98502.00;;;35.86;34.53
26699;BME280;14313;50.892;13.756;2022-10-17T13:42:37;98503.03;;;35.53;34.94
26699;BME280;14313;50.892;13.756;2022-10-17T13:45:12;98503.22;;;35.80;35.07
26699;BME280;14313;50.892;13.756;2022-10-17T13:47:40;98503.72;;;36.20;34.32
26699;BME280;14313;50.892;13.756;2022-10-17T13:50:06;98503.88;;;35.72;34.56
26699;BME280;14313;50.892;13.756;2022-10-17T13:52:32;98494.38;;;35.65;34.62
26699;BME280;14313;50.892;13.756;2022-10-17T13:55:16;98508.56;;;34.19;36.35
26699;BME280;14313;50.892;13.756;2022-10-17T13:57:44;98496.88;;;33.64;37.37
26699;BME280;14313;50.892;13.756;2022-10-17T14:00:20;98504.50;;;33.18;38.20
26699;BME280;14313;50.892;13.756;2022-10-17T14:02:47;98501.88;;;32.32;39.64
26699;BME280;14313;50.892;13.756;2022-10-17T14:05:16;98508.44;;;32.51;39.53
26699;BME280;14313;50.892;13.756;2022-10-17T14:07:48;98507.34;;;32.68;39.20
26699;BME280;14313;50.892;13.756;2022-10-17T14:10:23;98514.19;;;32.40;39.44
26699;BME280;14313;50.892;13.756;2022-10-17T14:12:52;98507.28;;;31.77;40.88
26699;BME280;14313;50.892;13.756;2022-10-17T14:15:21;98502.84;;;31.55;41.44
26699;BME280;14313;50.892;13.756;2022-10-17T14:17:54;98504.59;;;31.09;42.42
26699;BME280;14313;50.892;13.756;2022-10-17T14:20:21;98499.16;;;30.62;42.56
26699;BME280;14313;50.892;13.756;2022-10-17T14:22:48;98510.84;;;31.77;41.06
26699;BME280;14313;50.892;13.756;2022-10-17T14:27:54;98514.94;;;31.80;41.49
26699;BME280;14313;50.892;13.756;2022-10-17T14:32:54;98515.16;;;29.90;43.72
26699;BME280;14313;50.892;13.756;2022-10-17T14:35:21;98505.72;;;29.27;45.44
26699;BME280;14313;50.892;13.756;2022-10-17T14:37:49;98500.91;;;28.91;47.04
26699;BME280;14313;50.892;13.756;2022-10-17T14:40:18;98505.50;;;28.35;47.55
26699;BME280;14313;50.892;13.756;2022-10-17T14:42:44;98508.16;;;27.85;48.78
26699;BME280;14313;50.892;13.756;2022-10-17T14:45:22;98505.72;;;27.43;49.89
26699;BME280;14313;50.892;13.756;2022-10-17T14:47:50;98501.59;;;27.12;50.97
26699;BME280;14313;50.892;13.756;2022-10-17T14:50:24;98516.69;;;26.97;50.85
26699;BME280;14313;50.892;13.756;2022-10-17T14:53:04;98506.22;;;26.89;50.88
26699;BME280;14313;50.892;13.756;2022-10-17T14:55:33;98515.88;;;26.61;51.77
26699;BME280;14313;50.892;13.756;2022-10-17T14:57:59;98509.75;;;26.66;52.16
26699;BME280;14313;50.892;13.756;2022-10-17T15:00:25;98516.53;;;26.22;53.21
26699;BME280;14313;50.892;13.756;2022-10-17T15:02:52;98523.06;;;26.03;54.11
26699;BME280;14313;50.892;13.756;2022-10-17T15:05:19;98533.97;;;25.84;54.35
26699;BME280;14313;50.892;13.756;2022-10-17T15:07:45;98531.53;;;25.95;54.55
26699;BME280;14313;50.892;13.756;2022-10-17T15:10:23;98525.38;;;25.87;54.73
26699;BME280;14313;50.892;13.756;2022-10-17T15:12:49;98533.63;;;25.93;54.53
26699;BME280;14313;50.892;13.756;2022-10-17T15:15:15;98535.50;;;25.92;54.84
26699;BME280;14313;50.892;13.756;2022-10-17T15:17:40;98539.56;;;25.53;55.75
26699;BME280;14313;50.892;13.756;2022-10-17T15:20:13;98539.59;;;25.35;56.03
26699;BME280;14313;50.892;13.756;2022-10-17T15:22:40;98543.81;;;25.31;56.56
26699;BME280;14313;50.892;13.756;2022-10-17T15:25:05;98544.16;;;25.34;56.46
26699;BME280;14313;50.892;13.756;2022-10-17T15:27:31;98547.09;;;25.33;56.04
26699;BME280;14313;50.892;13.756;2022-10-17T15:29:56;98547.72;;;25.17;56.98
26699;BME280;14313;50.892;13.756;2022-10-17T15:32:22;98558.38;;;25.12;56.90
26699;BME280;14313;50.892;13.756;2022-10-17T15:34:47;98559.78;;;25.14;57.07
26699;BME280;14313;50.892;13.756;2022-10-17T15:37:19;98567.59;;;25.22;56.55
26699;BME280;14313;50.892;13.756;2022-10-17T15:39:51;98552.06;;;24.99;57.86
26699;BME280;14313;50.892;13.756;2022-10-17T15:42:21;98571.50;;;24.83;58.49
26699;BME280;14313;50.892;13.756;2022-10-17T15:44:47;98567.19;;;24.57;58.96
26699;BME280;14313;50.892;13.756;2022-10-17T15:47:29;98565.38;;;24.27;58.62
26699;BME280;14313;50.892;13.756;2022-10-17T15:49:58;98576.97;;;24.27;58.81
26699;BME280;14313;50.892;13.756;2022-10-17T15:52:25;98579.78;;;24.07;59.50
26699;BME280;14313;50.892;13.756;2022-10-17T15:54:51;98573.50;;;23.89;60.37
26699;BME280;14313;50.892;13.756;2022-10-17T15:57:22;98581.47;;;23.70;60.22
26699;BME280;14313;50.892;13.756;2022-10-17T15:59:49;98575.16;;;23.45;60.29
26699;BME280;14313;50.892;13.756;2022-10-17T16:02:16;98572.50;;;23.32;60.68
26699;BME280;14313;50.892;13.756;2022-10-17T16:04:42;98567.38;;;23.17;61.01
26699;BME280;14313;50.892;13.756;2022-10-17T16:07:08;98567.47;;;22.91;61.19
26699;BME280;14313;50.892;13.756;2022-10-17T16:09:34;98563.94;;;22.58;61.99
26699;BME280;14313;50.892;13.756;2022-10-17T16:12:02;98573.06;;;22.50;62.33
26699;BME280;14313;50.892;13.756;2022-10-17T16:14:27;98574.31;;;22.34;62.58
26699;BME280;14313;50.892;13.756;2022-10-17T16:16:53;98578.63;;;22.22;63.07
26699;BME280;14313;50.892;13.756;2022-10-17T16:19:18;98571.00;;;22.19;63.20
26699;BME280;14313;50.892;13.756;2022-10-17T16:21:43;98581.31;;;22.09;63.46
26699;BME280;14313;50.892;13.756;2022-10-17T16:24:10;98579.19;;;21.91;63.91
26699;BME280;14313;50.892;13.756;2022-10-17T16:26:37;98585.03;;;21.95;64.25
26699;BME280;14313;50.892;13.756;2022-10-17T16:29:02;98576.72;;;21.90;63.59
26699;BME280;14313;50.892;13.756;2022-10-17T16:31:42;98571.28;;;21.70;64.43
26699;BME280;14313;50.892;13.756;2022-10-17T16:34:09;98566.69;;;21.51;65.52
26699;BME280;14313;50.892;13.756;2022-10-17T16:36:35;98567.91;;;21.42;65.79
26699;BME280;14313;50.892;13.756;2022-10-17T16:39:00;98566.63;;;21.31;66.29
26699;BME280;14313;50.892;13.756;2022-10-17T16:41:31;98568.31;;;21.45;66.00
26699;BME280;14313;50.892;13.756;2022-10-17T16:43:59;98573.31;;;21.55;65.93
26699;BME280;14313;50.892;13.756;2022-10-17T16:46:26;98570.34;;;21.37;66.52